sensor_id;sensor_type;location;lat;lon;timestamp;pressure;altitude;pressure_sealevel;temperature;humidity
66742;BME280;53654;54.152;19.432;2023-01-30T00:01:26;100667.99;;;3.01;79.97
66742;BME280;53654;54.152;19.432;2023-01-30T00:03:54;100657.68;;;3.02;80.01
66742;BME280;53654;54.152;19.432;2023-01-30T00:06:23;100654.75;;;3.03;80.05
66742;BME280;53654;54.152;19.432;2023-01-30T00:08:52;100649.61;;;3.04;79.92
66742;BME280;53654;54.152;19.432;2023-01-30T00:11:21;100643.63;;;3.06;79.96
66742;BME280;53654;54.152;19.432;2023-01-30T00:13:49;100647.26;;;3.07;79.82
66742;BME280;53654;54.152;19.432;2023-01-30T00:16:18;100641.05;;;3.07;79.64
66742;BME280;53654;54.152;19.432;2023-01-30T00:18:46;100629.31;;;3.06;79.53
66742;BME280;53654;54.152;19.432;2023-01-30T00:21:14;100625.52;;;3.06;79.66
66742;BME280;53654;54.152;19.432;2023-01-30T00:23:43;100622.45;;;3.07;79.87
66742;BME280;53654;54.152;19.432;2023-01-30T00:26:11;100616.45;;;3.09;79.66
66742;BME280;53654;54.152;19.432;2023-01-30T00:28:40;100611.98;;;3.10;79.58
66742;BME280;53654;54.152;19.432;2023-01-30T00:31:08;100608.54;;;3.10;79.38
66742;BME280;53654;54.152;19.432;2023-01-30T00:33:37;100601.13;;;3.10;79.30
66742;BME280;53654;54.152;19.432;2023-01-30T00:36:06;100602.02;;;3.11;79.31
66742;BME280;53654;54.152;19.432;2023-01-30T00:38:35;100597.65;;;3.08;79.26
66742;BME280;53654;54.152;19.432;2023-01-30T00:41:06;100593.09;;;3.05;79.21
66742;BME280;53654;54.152;19.432;2023-01-30T00:43:35;100579.60;;;3.02;79.40
66742;BME280;53654;54.152;19.432;2023-01-30T00:46:29;100575.95;;;3.00;79.56
66742;BME280;53654;54.152;19.432;2023-01-30T00:49:17;100560.38;;;2.97;79.33
66742;BME280;53654;54.152;19.432;2023-01-30T00:51:45;100560.24;;;2.99;79.41
66742;BME280;53654;54.152;19.432;2023-01-30T00:54:14;100542.20;;;3.02;79.62
66742;BME280;53654;54.152;19.432;2023-01-30T00:56:42;100537.04;;;3.02;79.39
66742;BME280;53654;54.152;19.432;2023-01-30T00:59:10;100529.92;;;3.00;79.35
66742;BME280;53654;54.152;19.432;2023-01-30T01:01:38;100521.47;;;2.99;79.33
66742;BME280;53654;54.152;19.432;2023-01-30T01:04:06;100521.46;;;2.99;79.56
66742;BME280;53654;54.152;19.432;2023-01-30T01:06:37;100517.14;;;2.98;79.46
66742;BME280;53654;54.152;19.432;2023-01-30T01:09:06;100509.92;;;3.00;79.30
66742;BME280;53654;54.152;19.432;2023-01-30T01:11:34;100507.72;;;3.01;79.45
66742;BME280;53654;54.152;19.432;2023-01-30T01:14:03;100502.58;;;3.02;79.02
66742;BME280;53654;54.152;19.432;2023-01-30T01:16:33;100496.73;;;3.03;78.97
66742;BME280;53654;54.152;19.432;2023-01-30T01:19:02;100492.23;;;3.02;79.06
66742;BME280;53654;54.152;19.432;2023-01-30T01:21:30;100485.87;;;3.03;79.12
66742;BME280;53654;54.152;19.432;2023-01-30T01:23:59;100481.44;;;3.05;78.82
66742;BME280;53654;54.152;19.432;2023-01-30T01:26:27;100479.38;;;3.06;78.98
66742;BME280;53654;54.152;19.432;2023-01-30T01:28:57;100467.16;;;3.07;78.70
66742;BME280;53654;54.152;19.432;2023-01-30T01:31:25;100463.68;;;3.05;78.70
66742;BME280;53654;54.152;19.432;2023-01-30T01:33:55;100455.39;;;3.04;78.48
66742;BME280;53654;54.152;19.432;2023-01-30T01:36:25;100450.94;;;3.06;78.49
66742;BME280;53654;54.152;19.432;2023-01-30T01:39:13;100439.88;;;3.04;78.91
66742;BME280;53654;54.152;19.432;2023-01-30T01:41:41;100434.34;;;3.03;78.77
66742;BME280;53654;54.152;19.432;2023-01-30T01:44:12;100429.36;;;3.04;78.67
66742;BME280;53654;54.152;19.432;2023-01-30T01:49:21;100412.45;;;3.03;78.66
66742;BME280;53654;54.152;19.432;2023-01-30T01:54:36;100398.12;;;3.01;78.61
66742;BME280;53654;54.152;19.432;2023-01-30T01:57:14;100392.97;;;3.02;78.77
66742;BME280;53654;54.152;19.432;2023-01-30T01:59:48;100383.14;;;3.02;78.74
66742;BME280;53654;54.152;19.432;2023-01-30T02:02:18;100379.52;;;3.01;78.79
66742;BME280;53654;54.152;19.432;2023-01-30T02:04:48;100374.72;;;3.03;78.90
66742;BME280;53654;54.152;19.432;2023-01-30T02:10:14;100365.44;;;3.05;78.80
66742;BME280;53654;54.152;19.432;2023-01-30T02:12:47;100357.99;;;3.03;78.72
66742;BME280;53654;54.152;19.432;2023-01-30T02:15:17;100345.63;;;3.04;78.86
66742;BME280;53654;54.152;19.432;2023-01-30T02:17:45;100337.38;;;3.06;78.80
66742;BME280;53654;54.152;19.432;2023-01-30T02:31:24;100318.50;;;2.89;79.01
66742;BME280;53654;54.152;19.432;2023-01-30T02:42:43;100263.71;;;2.77;79.19
66742;BME280;53654;54.152;19.432;2023-01-30T02:45:35;100256.91;;;2.72;79.35
66742;BME280;53654;54.152;19.432;2023-01-30T02:48:24;100244.66;;;2.71;79.16
66742;BME280;53654;54.152;19.432;2023-01-30T02:50:58;100230.70;;;2.70;79.43
66742;BME280;53654;54.152;19.432;2023-01-30T02:53:34;100223.33;;;2.72;79.23
66742;BME280;53654;54.152;19.432;2023-01-30T02:56:04;100219.92;;;2.75;79.28
66742;BME280;53654;54.152;19.432;2023-01-30T02:58:37;100215.67;;;2.79;79.10
66742;BME280;53654;54.152;19.432;2023-01-30T03:01:44;100220.66;;;2.78;79.09
66742;BME280;53654;54.152;19.432;2023-01-30T03:12:42;100197.27;;;2.70;79.67
66742;BME280;53654;54.152;19.432;2023-01-30T03:15:44;100187.39;;;2.65;79.76
66742;BME280;53654;54.152;19.432;2023-01-30T03:18:09;100187.35;;;2.62;79.89
66742;BME280;53654;54.152;19.432;2023-01-30T03:20:39;100191.67;;;2.63;79.90
66742;BME280;53654;54.152;19.432;2023-01-30T03:23:08;100186.38;;;2.65;80.16
66742;BME280;53654;54.152;19.432;2023-01-30T03:25:38;100177.76;;;2.66;79.89
66742;BME280;53654;54.152;19.432;2023-01-30T03:28:08;100176.21;;;2.66;80.09
66742;BME280;53654;54.152;19.432;2023-01-30T03:30:38;100177.77;;;2.67;80.06
66742;BME280;53654;54.152;19.432;2023-01-30T03:33:09;100162.79;;;2.67;80.23
66742;BME280;53654;54.152;19.432;2023-01-30T03:35:39;100156.57;;;2.65;80.04
66742;BME280;53654;54.152;19.432;2023-01-30T03:38:07;100140.73;;;2.65;80.24
66742;BME280;53654;54.152;19.432;2023-01-30T03:40:35;100136.90;;;2.62;80.29
66742;BME280;53654;54.152;19.432;2023-01-30T03:43:04;100126.90;;;2.62;80.37
66742;BME280;53654;54.152;19.432;2023-01-30T03:45:32;100130.35;;;2.62;80.28
66742;BME280;53654;54.152;19.432;2023-01-30T03:48:00;100128.96;;;2.61;80.41
66742;BME280;53654;54.152;19.432;2023-01-30T03:50:30;100125.35;;;2.62;80.10
66742;BME280;53654;54.152;19.432;2023-01-30T03:52:59;100120.70;;;2.61;80.12
66742;BME280;53654;54.152;19.432;2023-01-30T03:55:28;100120.52;;;2.61;80.36
66742;BME280;53654;54.152;19.432;2023-01-30T03:57:57;100118.84;;;2.63;80.15
66742;BME280;53654;54.152;19.432;2023-01-30T04:00:27;100099.55;;;2.64;80.26
66742;BME280;53654;54.152;19.432;2023-01-30T04:02:56;100092.11;;;2.61;79.96
66742;BME280;53654;54.152;19.432;2023-01-30T04:05:24;100087.95;;;2.59;80.16
66742;BME280;53654;54.152;19.432;2023-01-30T04:07:56;100082.27;;;2.58;80.26
66742;BME280;53654;54.152;19.432;2023-01-30T04:10:25;100080.86;;;2.57;80.29
66742;BME280;53654;54.152;19.432;2023-01-30T04:12:53;100071.94;;;2.59;80.45
66742;BME280;53654;54.152;19.432;2023-01-30T04:15:22;100059.70;;;2.58;80.25
66742;BME280;53654;54.152;19.432;2023-01-30T04:18:10;100047.95;;;2.55;80.42
66742;BME280;53654;54.152;19.432;2023-01-30T04:20:56;100036.58;;;2.54;80.50
66742;BME280;53654;54.152;19.432;2023-01-30T04:23:30;100034.21;;;2.58;80.76
66742;BME280;53654;54.152;19.432;2023-01-30T04:25:58;100028.23;;;2.61;80.38
66742;BME280;53654;54.152;19.432;2023-01-30T04:28:27;100019.64;;;2.64;80.40
66742;BME280;53654;54.152;19.432;2023-01-30T04:30:55;100017.95;;;2.66;80.29
66742;BME280;53654;54.152;19.432;2023-01-30T04:33:38;100012.80;;;2.67;80.57
66742;BME280;53654;54.152;19.432;2023-01-30T04:36:09;100010.41;;;2.69;80.28
66742;BME280;53654;54.152;19.432;2023-01-30T04:38:37;100001.29;;;2.69;80.03
66742;BME280;53654;54.152;19.432;2023-01-30T04:41:06;99987.84;;;2.68;79.71
66742;BME280;53654;54.152;19.432;2023-01-30T04:43:37;99981.46;;;2.68;79.89
66742;BME280;53654;54.152;19.432;2023-01-30T04:46:34;99979.53;;;2.64;79.71
66742;BME280;53654;54.152;19.432;2023-01-30T04:49:03;99976.61;;;2.65;79.81
66742;BME280;53654;54.152;19.432;2023-01-30T04:51:31;99965.95;;;2.67;79.90
66742;BME280;53654;54.152;19.432;2023-01-30T04:53:59;99954.23;;;2.67;79.68
66742;BME280;53654;54.152;19.432;2023-01-30T04:56:27;99956.13;;;2.66;79.67
66742;BME280;53654;54.152;19.432;2023-01-30T04:58:55;99946.62;;;2.63;79.68
66742;BME280;53654;54.152;19.432;2023-01-30T05:01:36;99944.69;;;2.59;79.68
66742;BME280;53654;54.152;19.432;2023-01-30T05:04:05;99934.16;;;2.57;79.93
66742;BME280;53654;54.152;19.432;2023-01-30T05:06:34;99929.48;;;2.55;79.93
66742;BME280;53654;54.152;19.432;2023-01-30T05:09:03;99932.07;;;2.54;80.11
66742;BME280;53654;54.152;19.432;2023-01-30T05:11:33;99922.42;;;2.55;80.20
66742;BME280;53654;54.152;19.432;2023-01-30T05:14:01;99911.23;;;2.55;80.20
66742;BME280;53654;54.152;19.432;2023-01-30T05:16:29;99910.02;;;2.53;80.36
66742;BME280;53654;54.152;19.432;2023-01-30T05:18:57;99907.60;;;2.53;80.46
66742;BME280;53654;54.152;19.432;2023-01-30T05:21:26;99904.66;;;2.52;80.52
66742;BME280;53654;54.152;19.432;2023-01-30T05:23:55;99898.66;;;2.53;80.45
66742;BME280;53654;54.152;19.432;2023-01-30T05:26:23;99881.80;;;2.56;80.62
66742;BME280;53654;54.152;19.432;2023-01-30T05:28:54;99880.79;;;2.58;80.60
66742;BME280;53654;54.152;19.432;2023-01-30T05:31:22;99883.04;;;2.59;80.37
66742;BME280;53654;54.152;19.432;2023-01-30T05:33:51;99875.30;;;2.60;80.49
66742;BME280;53654;54.152;19.432;2023-01-30T05:36:20;99871.17;;;2.60;80.29
66742;BME280;53654;54.152;19.432;2023-01-30T05:38:49;99868.06;;;2.58;80.39
66742;BME280;53654;54.152;19.432;2023-01-30T05:41:17;99858.08;;;2.58;80.14
66742;BME280;53654;54.152;19.432;2023-01-30T05:43:49;99856.52;;;2.58;80.28
66742;BME280;53654;54.152;19.432;2023-01-30T05:46:18;99846.89;;;2.59;80.46
66742;BME280;53654;54.152;19.432;2023-01-30T05:48:46;99843.77;;;2.57;80.22
66742;BME280;53654;54.152;19.432;2023-01-30T05:51:20;99843.06;;;2.55;80.30
66742;BME280;53654;54.152;19.432;2023-01-30T05:53:48;99835.67;;;2.57;80.43
66742;BME280;53654;54.152;19.432;2023-01-30T05:56:18;99831.22;;;2.59;80.39
66742;BME280;53654;54.152;19.432;2023-01-30T05:58:54;99834.31;;;2.59;80.17
66742;BME280;53654;54.152;19.432;2023-01-30T06:01:23;99833.79;;;2.57;80.39
66742;BME280;53654;54.152;19.432;2023-01-30T06:03:52;99824.84;;;2.58;80.31
66742;BME280;53654;54.152;19.432;2023-01-30T06:06:21;99823.13;;;2.59;80.26
66742;BME280;53654;54.152;19.432;2023-01-30T06:08:54;99824.85;;;2.61;80.15
66742;BME280;53654;54.152;19.432;2023-01-30T06:11:22;99823.14;;;2.61;80.27
66742;BME280;53654;54.152;19.432;2023-01-30T06:13:51;99814.38;;;2.63;80.16
66742;BME280;53654;54.152;19.432;2023-01-30T06:16:19;99812.14;;;2.64;80.04
66742;BME280;53654;54.152;19.432;2023-01-30T06:18:48;99805.43;;;2.65;80.02
66742;BME280;53654;54.152;19.432;2023-01-30T06:21:16;99797.67;;;2.64;79.98
66742;BME280;53654;54.152;19.432;2023-01-30T06:23:44;99792.16;;;2.62;79.97
66742;BME280;53654;54.152;19.432;2023-01-30T06:26:13;99789.05;;;2.62;79.89
66742;BME280;53654;54.152;19.432;2023-01-30T06:28:41;99787.69;;;2.63;80.02
66742;BME280;53654;54.152;19.432;2023-01-30T06:31:09;99787.36;;;2.65;80.03
66742;BME280;53654;54.152;19.432;2023-01-30T06:33:37;99779.81;;;2.68;79.89
66742;BME280;53654;54.152;19.432;2023-01-30T06:36:06;99768.96;;;2.68;79.89
66742;BME280;53654;54.152;19.432;2023-01-30T06:38:34;99772.58;;;2.69;79.97
66742;BME280;53654;54.152;19.432;2023-01-30T06:41:02;99766.71;;;2.68;79.78
66742;BME280;53654;54.152;19.432;2023-01-30T06:43:30;99760.67;;;2.66;79.84
66742;BME280;53654;54.152;19.432;2023-01-30T06:45:59;99759.30;;;2.66;79.92
66742;BME280;53654;54.152;19.432;2023-01-30T06:48:27;99757.56;;;2.65;79.90
66742;BME280;53654;54.152;19.432;2023-01-30T06:50:55;99754.30;;;2.67;79.99
66742;BME280;53654;54.152;19.432;2023-01-30T06:53:23;99754.15;;;2.68;79.89
66742;BME280;53654;54.152;19.432;2023-01-30T06:55:58;99755.19;;;2.69;80.21
66742;BME280;53654;54.152;19.432;2023-01-30T06:58:26;99758.46;;;2.69;80.09
66742;BME280;53654;54.152;19.432;2023-01-30T07:00:55;99749.33;;;2.69;80.16
66742;BME280;53654;54.152;19.432;2023-01-30T07:03:23;99746.55;;;2.67;80.02
66742;BME280;53654;54.152;19.432;2023-01-30T07:05:51;99744.98;;;2.64;79.95
66742;BME280;53654;54.152;19.432;2023-01-30T07:08:19;99741.89;;;2.63;80.07
66742;BME280;53654;54.152;19.432;2023-01-30T07:10:51;99737.73;;;2.60;80.07
66742;BME280;53654;54.152;19.432;2023-01-30T07:13:19;99738.23;;;2.57;80.42
66742;BME280;53654;54.152;19.432;2023-01-30T07:15:47;99739.41;;;2.55;80.29
66742;BME280;53654;54.152;19.432;2023-01-30T07:18:15;99729.59;;;2.54;80.75
66742;BME280;53654;54.152;19.432;2023-01-30T07:20:47;99726.14;;;2.54;80.76
66742;BME280;53654;54.152;19.432;2023-01-30T07:23:16;99730.09;;;2.52;80.69
66742;BME280;53654;54.152;19.432;2023-01-30T07:25:44;99729.92;;;2.53;80.75
66742;BME280;53654;54.152;19.432;2023-01-30T07:28:13;99727.87;;;2.54;80.83
66742;BME280;53654;54.152;19.432;2023-01-30T07:30:41;99726.98;;;2.51;80.86
66742;BME280;53654;54.152;19.432;2023-01-30T07:33:09;99726.59;;;2.46;80.79
66742;BME280;53654;54.152;19.432;2023-01-30T07:35:38;99725.36;;;2.43;81.15
66742;BME280;53654;54.152;19.432;2023-01-30T07:38:06;99721.59;;;2.43;81.24
66742;BME280;53654;54.152;19.432;2023-01-30T07:40:34;99720.04;;;2.43;81.42
66742;BME280;53654;54.152;19.432;2023-01-30T07:43:03;99718.49;;;2.44;81.52
66742;BME280;53654;54.152;19.432;2023-01-30T07:45:38;99717.65;;;2.46;81.53
66742;BME280;53654;54.152;19.432;2023-01-30T07:48:09;99714.73;;;2.47;81.39
66742;BME280;53654;54.152;19.432;2023-01-30T07:50:38;99715.26;;;2.49;81.65
66742;BME280;53654;54.152;19.432;2023-01-30T07:53:09;99711.48;;;2.49;81.47
66742;BME280;53654;54.152;19.432;2023-01-30T07:55:38;99709.75;;;2.49;81.28
66742;BME280;53654;54.152;19.432;2023-01-30T07:58:06;99713.05;;;2.52;81.60
66742;BME280;53654;54.152;19.432;2023-01-30T08:00:34;99709.09;;;2.52;81.39
66742;BME280;53654;54.152;19.432;2023-01-30T08:03:02;99714.09;;;2.54;81.30
66742;BME280;53654;54.152;19.432;2023-01-30T08:05:31;99712.22;;;2.57;81.17
66742;BME280;53654;54.152;19.432;2023-01-30T08:07:59;99713.44;;;2.59;81.13
66742;BME280;53654;54.152;19.432;2023-01-30T08:10:27;99708.63;;;2.60;81.22
66742;BME280;53654;54.152;19.432;2023-01-30T08:12:55;99711.74;;;2.63;81.30
66742;BME280;53654;54.152;19.432;2023-01-30T08:15:23;99710.73;;;2.65;81.11
66742;BME280;53654;54.152;19.432;2023-01-30T08:17:55;99704.38;;;2.68;80.99
66742;BME280;53654;54.152;19.432;2023-01-30T08:20:25;99705.59;;;2.70;81.14
66742;BME280;53654;54.152;19.432;2023-01-30T08:22:54;99704.75;;;2.72;80.80
66742;BME280;53654;54.152;19.432;2023-01-30T08:25:22;99702.17;;;2.73;80.61
66742;BME280;53654;54.152;19.432;2023-01-30T08:27:51;99706.64;;;2.72;80.57
66742;BME280;53654;54.152;19.432;2023-01-30T08:30:20;99703.23;;;2.76;80.85
66742;BME280;53654;54.152;19.432;2023-01-30T08:32:48;99702.89;;;2.78;80.70
66742;BME280;53654;54.152;19.432;2023-01-30T08:35:17;99704.10;;;2.78;80.69
66742;BME280;53654;54.152;19.432;2023-01-30T08:37:45;99708.42;;;2.80;80.58
66742;BME280;53654;54.152;19.432;2023-01-30T08:40:13;99705.52;;;2.84;80.67
66742;BME280;53654;54.152;19.432;2023-01-30T08:42:45;99704.51;;;2.88;80.52
66742;BME280;53654;54.152;19.432;2023-01-30T08:45:13;99711.23;;;2.90;80.47
66742;BME280;53654;54.152;19.432;2023-01-30T08:47:41;99710.38;;;2.92;80.53
66742;BME280;53654;54.152;19.432;2023-01-30T08:50:10;99706.61;;;2.95;80.20
66742;BME280;53654;54.152;19.432;2023-01-30T08:52:38;99702.84;;;2.99;80.21
66742;BME280;53654;54.152;19.432;2023-01-30T08:55:06;99696.64;;;3.00;80.16
66742;BME280;53654;54.152;19.432;2023-01-30T08:57:35;99692.52;;;2.99;79.95
66742;BME280;53654;54.152;19.432;2023-01-30T09:00:04;99689.40;;;2.98;80.20
66742;BME280;53654;54.152;19.432;2023-01-30T09:02:32;99686.13;;;3.00;79.97
66742;BME280;53654;54.152;19.432;2023-01-30T09:05:00;99688.55;;;3.00;80.03
66742;BME280;53654;54.152;19.432;2023-01-30T09:07:28;99681.65;;;2.99;80.03
66742;BME280;53654;54.152;19.432;2023-01-30T09:09:57;99679.06;;;2.99;80.30
66742;BME280;53654;54.152;19.432;2023-01-30T09:12:25;99674.08;;;3.00;80.41
66742;BME280;53654;54.152;19.432;2023-01-30T09:14:53;99666.33;;;3.02;80.45
66742;BME280;53654;54.152;19.432;2023-01-30T09:17:24;99668.74;;;3.03;80.33
66742;BME280;53654;54.152;19.432;2023-01-30T09:19:53;99663.59;;;3.06;80.47
66742;BME280;53654;54.152;19.432;2023-01-30T09:22:21;99663.09;;;3.09;80.36
66742;BME280;53654;54.152;19.432;2023-01-30T09:24:49;99658.11;;;3.13;80.58
66742;BME280;53654;54.152;19.432;2023-01-30T09:27:17;99655.89;;;3.17;80.27
66742;BME280;53654;54.152;19.432;2023-01-30T09:29:45;99654.16;;;3.19;80.42
66742;BME280;53654;54.152;19.432;2023-01-30T09:32:13;99653.84;;;3.22;80.30
66742;BME280;53654;54.152;19.432;2023-01-30T09:34:41;99641.79;;;3.26;80.16
66742;BME280;53654;54.152;19.432;2023-01-30T09:37:09;99638.00;;;3.30;80.10
66742;BME280;53654;54.152;19.432;2023-01-30T09:39:37;99628.52;;;3.31;80.05
66742;BME280;53654;54.152;19.432;2023-01-30T09:42:31;99630.78;;;3.35;80.06
66742;BME280;53654;54.152;19.432;2023-01-30T09:55:50;99609.45;;;3.52;80.21
66742;BME280;53654;54.152;19.432;2023-01-30T09:58:20;99616.70;;;3.62;80.32
66742;BME280;53654;54.152;19.432;2023-01-30T10:00:53;99615.50;;;3.72;80.16
66742;BME280;53654;54.152;19.432;2023-01-30T10:03:30;99617.93;;;3.82;79.77
66742;BME280;53654;54.152;19.432;2023-01-30T10:06:10;99612.77;;;3.87;79.51
66742;BME280;53654;54.152;19.432;2023-01-30T10:28:05;99601.36;;;4.08;78.73
66742;BME280;53654;54.152;19.432;2023-01-30T10:30:33;99599.81;;;4.14;78.61
66742;BME280;53654;54.152;19.432;2023-01-30T10:33:05;99596.53;;;4.19;78.57
66742;BME280;53654;54.152;19.432;2023-01-30T10:35:37;99591.70;;;4.23;78.44
66742;BME280;53654;54.152;19.432;2023-01-30T10:38:20;99585.81;;;4.29;78.23
66742;BME280;53654;54.152;19.432;2023-01-30T10:40:59;99579.94;;;4.32;78.43
66742;BME280;53654;54.152;19.432;2023-01-30T10:43:40;99574.91;;;4.38;78.26
66742;BME280;53654;54.152;19.432;2023-01-30T10:48:57;99567.98;;;4.49;77.84
66742;BME280;53654;54.152;19.432;2023-01-30T10:59:38;99556.86;;;4.69;78.03
66742;BME280;53654;54.152;19.432;2023-01-30T11:02:29;99553.06;;;4.70;77.79
66742;BME280;53654;54.152;19.432;2023-01-30T11:05:12;99545.28;;;4.70;77.77
66742;BME280;53654;54.152;19.432;2023-01-30T11:07:42;99542.16;;;4.73;77.73
66742;BME280;53654;54.152;19.432;2023-01-30T11:10:20;99536.96;;;4.78;77.61
66742;BME280;53654;54.152;19.432;2023-01-30T11:13:00;99526.40;;;4.83;77.50
66742;BME280;53654;54.152;19.432;2023-01-30T11:15:38;99526.73;;;4.85;77.35
66742;BME280;53654;54.152;19.432;2023-01-30T11:18:07;99521.20;;;4.88;77.25
66742;BME280;53654;54.152;19.432;2023-01-30T11:21:08;99522.42;;;4.85;77.13
66742;BME280;53654;54.152;19.432;2023-01-30T11:23:43;99523.61;;;4.86;77.29
66742;BME280;53654;54.152;19.432;2023-01-30T11:26:19;99518.60;;;4.88;77.37
66742;BME280;53654;54.152;19.432;2023-01-30T11:28:48;99512.20;;;4.88;77.28
66742;BME280;53654;54.152;19.432;2023-01-30T11:31:19;99508.04;;;4.92;77.05
66742;BME280;53654;54.152;19.432;2023-01-30T11:34:11;99506.99;;;4.94;77.16
66742;BME280;53654;54.152;19.432;2023-01-30T11:36:42;99503.86;;;4.97;77.33
66742;BME280;53654;54.152;19.432;2023-01-30T11:41:47;99510.71;;;5.07;77.07
66742;BME280;53654;54.152;19.432;2023-01-30T11:44:34;99506.04;;;5.10;77.20
66742;BME280;53654;54.152;19.432;2023-01-30T11:47:14;99499.61;;;5.12;77.14
66742;BME280;53654;54.152;19.432;2023-01-30T11:49:47;99498.92;;;5.14;77.15
66742;BME280;53654;54.152;19.432;2023-01-30T11:52:40;99487.70;;;5.11;77.06
66742;BME280;53654;54.152;19.432;2023-01-30T11:55:13;99485.95;;;5.12;77.25
66742;BME280;53654;54.152;19.432;2023-01-30T11:57:43;99476.95;;;5.14;77.27
66742;BME280;53654;54.152;19.432;2023-01-30T12:02:45;99477.97;;;5.19;77.47
66742;BME280;53654;54.152;19.432;2023-01-30T12:05:45;99471.05;;;5.23;77.88
66742;BME280;53654;54.152;19.432;2023-01-30T12:11:02;99470.46;;;5.32;77.96
66742;BME280;53654;54.152;19.432;2023-01-30T12:13:41;99473.70;;;5.38;77.89
66742;BME280;53654;54.152;19.432;2023-01-30T12:16:33;99471.21;;;5.47;78.03
66742;BME280;53654;54.152;19.432;2023-01-30T12:19:16;99460.95;;;5.53;77.83
66742;BME280;53654;54.152;19.432;2023-01-30T12:24:45;99453.80;;;5.61;76.66
66742;BME280;53654;54.152;19.432;2023-01-30T12:27:18;99452.02;;;5.67;76.48
66742;BME280;53654;54.152;19.432;2023-01-30T12:29:58;99448.84;;;5.73;76.42
66742;BME280;53654;54.152;19.432;2023-01-30T12:32:30;99445.65;;;5.81;76.10
66742;BME280;53654;54.152;19.432;2023-01-30T12:35:00;99453.91;;;5.85;75.66
66742;BME280;53654;54.152;19.432;2023-01-30T12:40:21;99456.48;;;5.91;75.15
66742;BME280;53654;54.152;19.432;2023-01-30T12:52:15;99454.89;;;5.94;74.59
66742;BME280;53654;54.152;19.432;2023-01-30T12:55:21;99444.13;;;5.98;74.68
66742;BME280;53654;54.152;19.432;2023-01-30T12:57:40;99449.47;;;5.99;74.47
66742;BME280;53654;54.152;19.432;2023-01-30T13:05:54;99457.47;;;6.11;74.11
66742;BME280;53654;54.152;19.432;2023-01-30T13:11:30;99448.71;;;6.21;74.23
66742;BME280;53654;54.152;19.432;2023-01-30T13:14:32;99442.11;;;6.24;73.97
66742;BME280;53654;54.152;19.432;2023-01-30T13:19:48;99434.95;;;6.28;73.84
66742;BME280;53654;54.152;19.432;2023-01-30T13:22:23;99433.56;;;6.28;73.68
66742;BME280;53654;54.152;19.432;2023-01-30T13:25:03;99428.85;;;6.31;73.70
66742;BME280;53654;54.152;19.432;2023-01-30T13:27:37;99417.44;;;6.30;73.81
66742;BME280;53654;54.152;19.432;2023-01-30T13:30:11;99419.00;;;6.29;74.12
66742;BME280;53654;54.152;19.432;2023-01-30T13:32:45;99425.08;;;6.28;74.18
66742;BME280;53654;54.152;19.432;2023-01-30T13:35:18;99414.00;;;6.28;74.27
66742;BME280;53654;54.152;19.432;2023-01-30T13:37:48;99407.25;;;6.27;74.23
66742;BME280;53654;54.152;19.432;2023-01-30T13:40:20;99407.39;;;6.30;73.99
66742;BME280;53654;54.152;19.432;2023-01-30T13:42:59;99413.44;;;6.31;73.67
66742;BME280;53654;54.152;19.432;2023-01-30T13:45:31;99413.45;;;6.30;73.11
66742;BME280;53654;54.152;19.432;2023-01-30T13:59:24;99423.84;;;6.00;72.61
66742;BME280;53654;54.152;19.432;2023-01-30T14:07:47;99423.30;;;6.01;72.58
66742;BME280;53654;54.152;19.432;2023-01-30T14:10:18;99425.41;;;5.99;72.70
66742;BME280;53654;54.152;19.432;2023-01-30T14:12:50;99421.78;;;5.98;72.57
66742;BME280;53654;54.152;19.432;2023-01-30T14:15:26;99425.05;;;6.00;72.79
66742;BME280;53654;54.152;19.432;2023-01-30T14:20:49;99421.20;;;6.03;72.79
66742;BME280;53654;54.152;19.432;2023-01-30T14:25:55;99414.64;;;6.02;72.91
66742;BME280;53654;54.152;19.432;2023-01-30T14:31:00;99418.27;;;6.02;73.07
66742;BME280;53654;54.152;19.432;2023-01-30T14:33:34;99423.46;;;6.04;73.05
66742;BME280;53654;54.152;19.432;2023-01-30T14:38:36;99435.35;;;6.07;73.30
66742;BME280;53654;54.152;19.432;2023-01-30T15:04:47;99472.92;;;5.88;75.95
66742;BME280;53654;54.152;19.432;2023-01-30T15:09:56;99483.66;;;5.90;75.42
66742;BME280;53654;54.152;19.432;2023-01-30T15:27:24;99507.59;;;5.81;75.29
66742;BME280;53654;54.152;19.432;2023-01-30T15:32:35;99515.36;;;5.84;75.34
66742;BME280;53654;54.152;19.432;2023-01-30T15:37:52;99511.71;;;5.89;75.40
66742;BME280;53654;54.152;19.432;2023-01-30T15:40:23;99516.89;;;5.89;75.43
66742;BME280;53654;54.152;19.432;2023-01-30T15:50:58;99526.90;;;5.94;74.95
66742;BME280;53654;54.152;19.432;2023-01-30T15:56:00;99533.65;;;5.94;74.19
66742;BME280;53654;54.152;19.432;2023-01-30T15:58:29;99536.43;;;5.94;73.96
66742;BME280;53654;54.152;19.432;2023-01-30T16:00:59;99530.88;;;5.95;73.75
66742;BME280;53654;54.152;19.432;2023-01-30T16:03:33;99523.44;;;5.94;73.54
66742;BME280;53654;54.152;19.432;2023-01-30T16:06:05;99529.66;;;5.95;73.28
66742;BME280;53654;54.152;19.432;2023-01-30T16:08:35;99538.13;;;5.97;72.98
66742;BME280;53654;54.152;19.432;2023-01-30T16:11:03;99545.92;;;5.96;72.98
66742;BME280;53654;54.152;19.432;2023-01-30T16:13:31;99547.84;;;5.96;72.82
66742;BME280;53654;54.152;19.432;2023-01-30T16:16:12;99540.03;;;5.97;72.91
66742;BME280;53654;54.152;19.432;2023-01-30T16:18:48;99547.16;;;5.94;72.78
66742;BME280;53654;54.152;19.432;2023-01-30T16:21:24;99546.31;;;5.91;72.72
66742;BME280;53654;54.152;19.432;2023-01-30T16:24:01;99548.39;;;5.91;72.78
66742;BME280;53654;54.152;19.432;2023-01-30T16:26:32;99552.55;;;5.90;72.72
66742;BME280;53654;54.152;19.432;2023-01-30T16:29:06;99551.52;;;5.89;72.35
66742;BME280;53654;54.152;19.432;2023-01-30T16:31:39;99548.94;;;5.86;72.14
66742;BME280;53654;54.152;19.432;2023-01-30T16:34:30;99549.45;;;5.85;71.88
66742;BME280;53654;54.152;19.432;2023-01-30T16:37:25;99554.33;;;5.82;72.00
66742;BME280;53654;54.152;19.432;2023-01-30T16:42:38;99551.59;;;5.78;71.77